• Join FlightAware (Why Join?)
  • Login
  • US Flag 
01:24AM EDT


 

Airport Tracker/Info


-or-


 

Live Flight TrackerFlight Track Log ✈ UAL1074 ✈ 12-Apr-2012 ✈ KFLL - KDEN

Flight Track Log - Related Links

Times and Time Zones

All times are in EDT time to prevent confusion due to time zone crossing. See the UAL1074 flight status page for this flight to view local times or setup timezone preferences in your user account.

Time Position Orientation Groundspeed Altitude Reporting Facility
EDT Latitude Longitude Course Direction KTS MPH feet Rate Location/Type
03:41PM 26.0858 -80.1795 105° East  Level FlightAware Approximate
03:41PM 26.0750 -80.1344 87° East 170 196 900  Level Miami Center
03:43PM 26.0783 -80.0719 53° Northeast 187 215 3,300 1,860 Climbing Miami Center
03:43PM 26.1000 -80.0403 318° Northwest 230 265 4,200 2,280 Climbing Miami Center
03:44PM 26.1450 -80.0853 290° West 263 303 6,800 2,640 Climbing Miami Center
03:46PM 26.1803 -80.1950 289° West 281 323 10,800 2,340 Climbing Miami Center
03:47PM 26.2094 -80.2886 288° West 302 348 12,700 2,280 Climbing Miami Center
03:48PM 26.2383 -80.3867 289° West 323 372 15,400 2,580 Climbing Miami Center
03:49PM 26.2711 -80.4919 300° West 356 410 17,900 2,520 Climbing Miami Center
03:50PM 26.3269 -80.5978 305° West 362 417 20,500 2,220 Climbing Miami Center
03:51PM 26.3811 -80.6853 306° West 373 429 22,400 1,920 Climbing Miami Center
03:52PM 26.4475 -80.7872 305° West 378 435 24,400 1,740 Climbing Miami Center
03:53PM 26.5033 -80.8772 306° West 385 443 25,900 1,380 Climbing Miami Center
03:54PM 26.5733 -80.9864 305° West 391 450 27,200 1,140 Climbing Miami Center
03:55PM 26.6314 -81.0792 305° West 397 457 28,300 1,440 Climbing Miami Center
03:56PM 26.7031 -81.1956 304° West 408 470 30,100 1,500 Climbing Miami Center
03:57PM 26.7608 -81.2908 306° West 408 470 31,300 1,260 Climbing Miami Center
03:58PM 26.8344 -81.4053 299° West 408 470 32,700 1,440 Climbing Miami Center
03:59PM 26.8836 -81.5050 299° West 402 463 34,200 1,560 Climbing Miami Center
04:00PM 26.9364 -81.6119 299° West 397 457 35,900 840 Climbing Miami Center
04:01PM 26.9872 -81.7164 300° West 391 450 36,000  Climbing Miami Center
04:02PM 27.0439 -81.8261 289° West 380 437 36,000  Level Miami Center
04:03PM 27.0797 -81.9419 286° West 380 437 36,000  Level Miami Center
04:04PM 27.1053 -82.0456 287° West 391 450 36,000  Level Miami Center
04:05PM 27.1403 -82.1756 284° West 391 450 36,000  Level Miami Center
04:06PM 27.1633 -82.2792 287° West 391 450 36,000  Level Miami Center
04:07PM 27.1944 -82.3972 284° West 385 443 36,000  Level Miami Center
04:08PM 27.2192 -82.5106 287° West 385 443 36,000  Level Miami Center
04:09PM 27.2522 -82.6289 285° West 385 443 36,000  Level Miami Center
04:10PM 27.2825 -82.7542 287° West 385 443 36,000  Level Miami Center
04:11PM 27.3078 -82.8489 286° West 385 443 36,000  Level Miami Center
04:12PM 27.3436 -82.9886 286° West 385 443 36,000 -60 Level Miami Center
04:13PM 27.3722 -83.1044 285° West 385 443 35,900  Descending Miami Center
04:14PM 27.4006 -83.2206 285° West 385 443 36,000  Climbing Miami Center
04:15PM 27.4286 -83.3367 285° West 385 443 36,000 -60 Level Miami Center
04:16PM 27.4567 -83.4550 285° West 385 443 35,900  Descending Miami Center
04:17PM 27.4847 -83.5714 286° West 385 443 36,000  Climbing Miami Center
04:18PM 27.5128 -83.6853 285° West 385 443 36,000  Level Miami Center
04:19PM 27.5406 -83.8017 286° West 385 443 36,000  Level Miami Center
04:20PM 27.5703 -83.9181 283° West 385 443 36,000  Level Miami Center
04:21PM 27.5939 -84.0317 285° West 385 443 36,000  Level Miami Center
04:23PM 27.6564 -84.2886 287° West 384 442 36,000 -60 Level Jacksonville Center
04:24PM 27.6883 -84.4086 284° West 379 436 35,900  Descending Jacksonville Center
04:25PM 27.7139 -84.5239 287° West 379 436 36,000  Climbing Jacksonville Center
04:26PM 27.7458 -84.6394 283° West 379 436 36,000  Level Jacksonville Center
04:27PM 27.7711 -84.7664 285° West 379 436 36,000  Level Jacksonville Center
04:28PM 27.7986 -84.8819 283° West 385 443 36,000 -60 Level Jacksonville Center
04:29PM 27.8239 -85.0067 286° West 380 437 35,900  Descending Jacksonville Center
04:30PM 27.8511 -85.1175 285° West 385 443 36,000  Climbing Jacksonville Center
04:31PM 27.8783 -85.2331 287° West 385 443 36,000  Level Jacksonville Center
04:32PM 27.9094 -85.3489 291° West 378 435 36,000 -60 Level Jacksonville Center
04:33PM 27.9450 -85.4556 288° West 378 435 35,900  Descending Jacksonville Center
04:34PM 27.9800 -85.5786 289° West 384 442 36,000  Climbing Jacksonville Center
04:35PM 28.0131 -85.6875 289° West 384 442 36,000  Level Jacksonville Center
04:36PM 28.0483 -85.8014 290° West 384 442 36,000 -60 Level Jacksonville Center
04:37PM 28.0814 -85.9058 287° West 379 436 35,900  Descending Jacksonville Center
04:38PM 28.1139 -86.0267 290° West 385 443 36,000  Climbing Jacksonville Center
04:39PM 28.1486 -86.1361 289° West 380 437 36,000  Level Jacksonville Center
04:40PM 28.1833 -86.2503 288° West 380 437 36,000  Level Jacksonville Center
04:41PM 28.2158 -86.3667 290° West 389 448 36,000  Level Jacksonville Center
04:42PM 28.2561 -86.4931 286° West 391 450 36,000  Level Jacksonville Center
04:43PM 28.2842 -86.6025 288° West 386 444 36,000 600 Level Jacksonville Center
04:44PM 28.3183 -86.7192 289° West 392 451 37,300 960 Climbing Jacksonville Center
04:45PM 28.3525 -86.8314 289° West 384 442 38,000 300 Climbing Jacksonville Center
04:46PM 28.3886 -86.9483 288° West 384 442 38,000 -60 Level Jacksonville Center
04:48PM 28.4656 -87.2111 288° West 358 412 37,900 -60 Descending Houston Center
04:49PM 28.4983 -87.3231 288° West 369 425 37,900  Level Houston Center
04:50PM 28.5311 -87.4375 288° West 371 427 38,000  Climbing Houston Center
04:51PM 28.5639 -87.5497 287° West 357 411 38,000  Level Houston Center
04:52PM 28.5944 -87.6622 288° West 359 413 38,000  Level Houston Center
04:53PM 28.6269 -87.7744 287° West 364 419 38,000 -60 Level Houston Center
04:54PM 28.6547 -87.8753 286° West 372 428 37,900  Descending Houston Center
04:55PM 28.6850 -87.9925 288° West 403 464 38,000  Climbing Houston Center
04:56PM 28.7172 -88.1075 295° West 406 467 37,900 -60 Descending Houston Center
04:57PM 28.7597 -88.2128 303° West 381 438 37,900  Level Houston Center
04:58PM 28.8164 -88.3128 306° West 369 425 38,000  Climbing Houston Center
04:59PM 28.8794 -88.4106 306° West 375 432 37,900  Descending Houston Center
05:00PM 28.9422 -88.5083 306° West 380 437 38,000  Climbing Houston Center
05:01PM 29.0028 -88.6039 305° West 380 437 38,000  Level Houston Center
05:02PM 29.0636 -88.7042 304° West 385 443 38,000  Level Houston Center
05:03PM 29.1219 -88.8025 306° West 385 443 38,000  Level Houston Center
05:04PM 29.1847 -88.9031 304° West 385 443 38,000 -60 Level Houston Center
05:05PM 29.2431 -89.0017 306° West 385 443 37,900  Descending Houston Center
05:06PM 29.3033 -89.0978 305° West 385 443 38,000  Climbing Houston Center
05:07PM 29.3636 -89.1964 303° West 385 443 37,900  Descending Houston Center
05:08PM 29.4217 -89.2975 305° West 385 443 38,000  Climbing Houston Center
05:09PM 29.4839 -89.3986 305° West 385 443 38,000  Level Houston Center
05:10PM 29.5442 -89.4978 306° West 385 443 38,000  Level Houston Center
05:11PM 29.6061 -89.5967 304° West 390 449 38,000  Level Houston Center
05:12PM 29.6661 -89.6983 303° West 390 449 38,000  Level Houston Center
05:13PM 29.7239 -89.8000 305° West 390 449 38,000 -60 Level Houston Center
05:14PM 29.7858 -89.9019 305° West 390 449 37,900  Descending Houston Center
05:15PM 29.8478 -90.0039 314° West 390 449 38,000  Climbing Houston Center
05:16PM 29.9219 -90.0936 313° West 395 455 38,000 -60 Level Houston Center
05:17PM 29.9958 -90.1861 313° West 395 455 37,900 -60 Descending Houston Center
05:18PM 30.0700 -90.2786 314° West 395 455 37,900  Level Houston Center
05:19PM 30.1439 -90.3664 313° West 389 448 37,900  Level Houston Center
05:20PM 30.2178 -90.4569 313° West 389 448 37,900  Level Houston Center
05:21PM 30.2917 -90.5475 313° West 384 442 37,900  Level Houston Center
05:22PM 30.3633 -90.6356 312° West 384 442 38,000  Climbing Houston Center
05:23PM 30.4328 -90.7264 314° West 384 442 38,000  Level Houston Center
05:24PM 30.5086 -90.8175 313° West 384 442 38,000 -60 Level Houston Center
05:25PM 30.5842 -90.9108 314° West 384 442 37,900  Descending Houston Center
05:26PM 30.6600 -91.0019 313° West 384 442 38,000  Climbing Houston Center
05:27PM 30.7356 -91.0958 313° West 384 442 38,000  Level Houston Center
05:28PM 30.8006 -91.1775 312° West 384 442 38,000  Level Houston Center
05:29PM 30.8739 -91.2739 314° West 389 448 38,000  Level Houston Center
05:30PM 30.9514 -91.3681 313° West 389 448 38,000  Level Houston Center
05:31PM 31.0267 -91.4625 313° West 389 448 38,000  Level Houston Center
05:32PM 31.1017 -91.5567 311° West 389 448 38,000  Level Houston Center
05:33PM 31.1750 -91.6539 314° West 389 448 38,000  Level Houston Center
05:34PM 31.2519 -91.7483 313° West 389 448 38,000  Level Houston Center
05:35PM 31.3250 -91.8408 313° West 389 448 38,000  Level Houston Center
05:36PM 31.4019 -91.9383 312° West 394 453 38,000  Level Houston Center
05:37PM 31.4831 -92.0433 312° West 394 453 38,000  Level Houston Center
05:38PM 31.5578 -92.1408 312° West 399 459 38,000  Level Houston Center
05:39PM 31.6347 -92.2411 314° West 404 465 38,000  Level Houston Center
05:41PM 31.7606 -92.3953 311° West 400 460 38,000  Level Fort Worth Center
05:42PM 31.8333 -92.4939 312° West 400 460 38,000  Level Fort Worth Center
05:43PM 31.9017 -92.5831 311° West 405 466 38,000  Level Fort Worth Center
05:44PM 31.9742 -92.6797 312° West 405 466 38,000  Level Fort Worth Center
05:45PM 32.0467 -92.7764 310° West 399 459 38,000  Level Fort Worth Center
05:46PM 32.1192 -92.8781 311° West 399 459 38,000  Level Fort Worth Center
05:47PM 32.1894 -92.9753 311° West 399 459 38,000  Level Fort Worth Center
05:48PM 32.2617 -93.0725 311° West 399 459 38,000  Level Fort Worth Center
05:49PM 32.3317 -93.1675 311° West 393 452 38,000  Level Fort Worth Center
05:50PM 32.4039 -93.2650 310° West 393 452 38,000  Level Fort Worth Center
05:51PM 32.4761 -93.3675 311° West 399 459 38,000  Level Fort Worth Center
05:52PM 32.5503 -93.4703 310° West 405 466 38,000  Level Fort Worth Center
05:53PM 32.6225 -93.5731 310° West 411 473 38,000  Level Fort Worth Center
05:54PM 32.7008 -93.6858 311° West 411 473 38,000  Level Fort Worth Center
05:55PM 32.7750 -93.7889 310° West 411 473 38,000  Level Fort Worth Center
05:56PM 32.8489 -93.8922 310° West 417 480 38,000  Level Fort Worth Center
05:57PM 32.9206 -93.9958 310° West 417 480 38,000  Level Fort Worth Center
05:58PM 32.9944 -94.1019 312° West 417 480 38,000  Level Fort Worth Center
05:59PM 33.0700 -94.2033 309° West 417 480 38,000  Level Fort Worth Center
06:00PM 33.1417 -94.3097 310° West 417 480 38,000  Level Fort Worth Center
06:01PM 33.2150 -94.4142 310° West 417 480 38,000  Level Fort Worth Center
06:02PM 33.2886 -94.5208 311° West 417 480 38,000  Level Fort Worth Center
06:03PM 33.3639 -94.6228 309° West 417 480 38,000  Level Fort Worth Center
06:04PM 33.4372 -94.7300 310° West 417 480 38,000  Level Fort Worth Center
06:05PM 33.5103 -94.8350 310° West 417 480 38,000  Level Fort Worth Center
06:06PM 33.5856 -94.9425 308° West 417 480 38,000  Level Fort Worth Center
06:07PM 33.6544 -95.0478 307° West 417 480 38,000  Level Fort Worth Center
06:08PM 33.7211 -95.1533 311° West 412 474 38,000  Level Fort Worth Center
06:09PM 33.7958 -95.2564 309° West 412 474 38,000  Level Fort Worth Center
06:10PM 33.8664 -95.3597 309° West 412 474 38,000  Level Fort Worth Center
06:11PM 33.9369 -95.4633 310° West 412 474 38,000  Level Fort Worth Center
06:12PM 34.0094 -95.5669 311° West 412 474 38,000  Level Fort Worth Center
06:13PM 34.0756 -95.6583 307° West 412 474 38,000  Level Fort Worth Center
06:14PM 34.1458 -95.7722 309° West 404 465 38,000  Level Fort Worth Center
06:15PM 34.2161 -95.8764 310° West 398 458 38,000  Level Fort Worth Center
06:16PM 34.2883 -95.9808 308° West 398 458 38,000  Level Fort Worth Center
06:17PM 34.3583 -96.0878 310° West 398 458 38,000  Level Fort Worth Center
06:18PM 34.4325 -96.1947 308° West 408 470 38,000  Level Fort Worth Center
06:19PM 34.4958 -96.2922 308° West 408 470 38,000  Level Fort Worth Center
06:20PM 34.5658 -96.3997 309° West 413 475 38,000  Level Fort Worth Center
06:21PM 34.6375 -96.5075 310° West 413 475 38,000  Level Fort Worth Center
06:22PM 34.7092 -96.6128 308° West 413 475 38,000  Level Fort Worth Center
06:23PM 34.7786 -96.7208 309° West 413 475 38,000  Level Fort Worth Center
06:29PM 35.1936 -97.3550 310° West 392 451 38,000  Level Fort Worth Center
06:30PM 35.2644 -97.4594 303° West 392 451 38,000  Level Fort Worth Center
06:31PM 35.3186 -97.5611 314° West 399 459 38,000  Level Fort Worth Center
06:32PM 35.3956 -97.6581 316° Northwest 404 465 38,000  Level Fort Worth Center
06:33PM 35.4850 -97.7628 318° Northwest 404 465 38,000  Level Fort Worth Center
06:35PM 35.6136 -97.9067 316° Northwest 395 455 38,000  Level Kansas City Center
06:36PM 35.6861 -97.9942 316° Northwest 395 455 38,000  Level Kansas City Center
06:37PM 35.7647 -98.0872 317° Northwest 395 455 38,000  Level Kansas City Center
06:38PM 35.8475 -98.1831 316° Northwest 401 461 38,000  Level Kansas City Center
06:39PM 35.9278 -98.2792 317° Northwest 401 461 38,000  Level Kansas City Center
06:40PM 36.0106 -98.3731 316° Northwest 401 461 38,000  Level Kansas City Center
06:41PM 36.0908 -98.4697 316° Northwest 401 461 38,000  Level Kansas City Center
06:42PM 36.1731 -98.5689 316° Northwest 401 461 38,000  Level Kansas City Center
06:43PM 36.2550 -98.6658 315° West 406 467 38,000  Level Kansas City Center
06:44PM 36.3350 -98.7656 318° Northwest 406 467 38,000  Level Kansas City Center
06:45PM 36.4192 -98.8606 315° West 406 467 38,000  Level Kansas City Center
06:46PM 36.5011 -98.9633 316° Northwest 411 473 38,000  Level Kansas City Center
06:47PM 36.5828 -99.0611 316° Northwest 411 473 38,000  Level Kansas City Center
06:48PM 36.6667 -99.1619 316° Northwest 411 473 38,000  Level Kansas City Center
06:49PM 36.7483 -99.2603 315° West 411 473 38,000  Level Kansas City Center
06:50PM 36.8317 -99.3639 314° West 411 473 38,000  Level Kansas City Center
06:51PM 36.9131 -99.4678 315° West 411 473 38,000  Level Kansas City Center
06:52PM 36.9942 -99.5694 317° Northwest 411 473 38,000  Level Kansas City Center
06:53PM 37.0836 -99.6742 315° West 411 473 38,000  Level Kansas City Center
06:54PM 37.1667 -99.7789 316° Northwest 411 473 38,000  Level Kansas City Center
06:55PM 37.2400 -99.8675 315° West 411 473 38,000  Level Kansas City Center
06:56PM 37.3308 -99.9808 315° West 411 473 38,000  Level Kansas City Center
06:57PM 37.4156 -100.0864 315° West 411 473 38,000  Level Kansas City Center
06:58PM 37.4903 -100.1811 315° West 417 480 38,000  Level Kansas City Center
06:59PM 37.5731 -100.2842 315° West 417 480 38,000  Level Kansas City Center
07:00PM 37.6633 -100.3986 315° West 417 480 38,000  Level Kansas City Center
07:01PM 37.7478 -100.5053 316° Northwest 417 480 38,000  Level Kansas City Center
07:02PM 37.8244 -100.6006 313° West 424 488 38,000  Level Kansas City Center
07:03PM 37.9122 -100.7183 299° West 424 488 38,000  Level Kansas City Center
07:04PM 37.9661 -100.8414 296° West 418 481 38,000  Level Kansas City Center
07:06PM 38.0714 -101.1225 296° West 400 460 38,000  Level Denver Center
07:07PM 38.1239 -101.2611 297° West 395 455 38,000  Level Denver Center
07:08PM 38.1733 -101.3869 294° West 395 455 38,000  Level Denver Center
07:09PM 38.2136 -101.5003 296° West 395 455 38,000 -360 Level Denver Center
07:10PM 38.2678 -101.6394 295° West 395 455 37,300 -840 Descending Denver Center
07:11PM 38.3169 -101.7711 295° West 395 455 36,400 -900 Descending Denver Center
07:12PM 38.3661 -101.9056 295° West 411 473 35,500 -900 Descending Denver Center
07:13PM 38.4106 -102.0272 304° West 422 486 34,600 -960 Descending Denver Center
07:14PM 38.4806 -102.1608 304° West 412 474 33,600 -900 Descending Denver Center
07:15PM 38.5456 -102.2842 303° West 425 489 32,800 -900 Descending Denver Center
07:16PM 38.6106 -102.4106 304° West 425 489 31,900 -900 Descending Denver Center
07:17PM 38.6686 -102.5214 305° West 425 489 31,000 -960 Descending Denver Center
07:18PM 38.7419 -102.6533 305° West 425 489 30,000 -540 Descending Denver Center
07:19PM 38.8086 -102.7747 303° West 425 489 30,000  Level Denver Center
07:20PM 38.8708 -102.8997 303° West 420 483 30,000 -420 Level Denver Center
07:21PM 38.9353 -103.0272 304° West 425 489 29,200 -900 Descending Denver Center
07:22PM 38.9994 -103.1494 303° West 420 483 28,200 -960 Descending Denver Center
07:23PM 39.0569 -103.2644 303° West 427 491 27,300 -960 Descending Denver Center
07:24PM 39.1208 -103.3900 304° West 422 486 26,300 -1,020 Descending Denver Center
07:25PM 39.1822 -103.5078 303° West 417 480 25,300 -1,500 Descending Denver Center
07:26PM 39.2436 -103.6286 303° West 411 473 23,400 -2,100 Descending Denver Center
07:27PM 39.3006 -103.7417 302° West 382 440 21,200 -2,040 Descending Denver Center
07:28PM 39.3531 -103.8497 303° West 371 427 19,400 -1,140 Descending Denver Center
07:29PM 39.4056 -103.9525 277° West 352 405 19,000 -1,080 Descending Denver Center
07:30PM 39.4167 -104.0783 269° West 321 369 17,300 -1,920 Descending Denver Center
07:31PM 39.4147 -104.1886 263° West 309 356 15,200 -1,860 Descending Denver Center
07:32PM 39.4042 -104.2964 265° West 309 356 13,600 -1,380 Descending Denver Center
07:33PM 39.3978 -104.3989 280° West 304 350 12,500 -1,200 Descending Denver Center
07:34PM 39.4097 -104.4872 302° West 273 314 11,200 -780 Descending Denver Center
07:35PM 39.4464 -104.5642 306° West 249 287 11,000 -840 Descending Denver Center
07:35PM 39.4667 -104.6000 330° Northwest 251 289 10,000 -1,320 Descending Denver TRACON
07:36PM 39.5333 -104.6500 349° North 241 277 9,000 -540 Descending Denver TRACON
07:37PM 39.6000 -104.6667 360° North 237 273 9,000 -180 Level Denver TRACON
07:38PM 39.6500 -104.6667 360° North 232 267 8,700 -300 Descending Denver TRACON